Echo, Oregon
Current Conditions -  °F | °C
As of 2:53 PM on Thursday 23 Oct 2014 (Local Time) from KHRI Reporting Station
Overcast Overcast  
Wind Chill: 57°   Ceiling: 5500
Heat Index: 57°   Visibility: 10mi
Dew Point: 53°   Wind: 8mph
Humidity: 87%   Direction: 210°SSW
Pressure: 29.88"   Gusts: NA
Location:  45.74°N, 119.2°W
Report Text: KHRI 232153Z AUTO 21007KT 10SM OVC055 14/12 A2988 RMK AO2 RAE24 SLP118 P0000 T01390117
Loading
Personal Weather Stations






























Interactive Weather Map
Tropical Storm Tracking
New forecast layout! Learn more

10-Day Weather Forecast

Advertisements
Track Severe Weather on mobile